Terminal Aerodrome Forecast
Issued by NWS

Home | Current Version | Previous Version | Text Only | Print | Product List | Glossary On
Versions: 1 2 3 4 5 6 7 8 9 10 11 12 13 14 15
000
FTUS42 KTAE 011738
TAFABY
TAF
KABY 011738Z 0118/0218 28005KT P6SM SCT030
     FM012000 27006KT P6SM VCTS BKN040CB
     FM020200 00000KT P6SM SCT250
     FM020600 00000KT 6SM BR OVC005
     FM021500 15005KT P6SM BKN050=

USA.gov is the U.S. government's official web portal to all federal, state and local government web resources and services.